createdAt,value
2018-09-05T00:00:55.592Z,99.90
2018-09-05T00:03:24.458Z,99.90
2018-09-05T00:05:52.950Z,99.90
2018-09-05T00:08:21.657Z,99.90
2018-09-05T00:10:50.207Z,99.90
2018-09-05T00:13:18.775Z,99.90
2018-09-05T00:15:47.323Z,99.90
2018-09-05T00:18:15.819Z,99.90
2018-09-05T00:20:44.469Z,99.90
2018-09-05T00:23:12.987Z,99.90
2018-09-05T00:25:41.475Z,99.90
2018-09-05T00:28:10.321Z,99.90
2018-09-05T00:30:38.905Z,99.90
2018-09-05T00:33:07.492Z,99.90
2018-09-05T00:35:35.997Z,99.90
2018-09-05T00:38:04.964Z,99.90
2018-09-05T00:40:33.507Z,99.90
2018-09-05T00:43:02.001Z,99.90
2018-09-05T00:45:30.497Z,99.90
2018-09-05T00:47:59.007Z,99.90
2018-09-05T00:50:27.833Z,99.90
2018-09-05T00:52:56.393Z,99.90
2018-09-05T00:55:25.132Z,99.90
2018-09-05T00:57:53.627Z,99.90
2018-09-05T01:00:22.292Z,99.90
2018-09-05T01:02:50.956Z,99.90
2018-09-05T01:05:19.502Z,99.90
2018-09-05T01:07:48.639Z,99.90
2018-09-05T01:10:17.250Z,99.90
2018-09-05T01:12:46.128Z,99.90
2018-09-05T01:15:14.628Z,99.90
2018-09-05T01:17:43.154Z,99.90
2018-09-05T01:20:11.674Z,99.90
2018-09-05T01:22:40.216Z,99.90
2018-09-05T01:25:09.065Z,99.90
2018-09-05T01:27:38.150Z,99.90
2018-09-05T01:30:07.243Z,99.90
2018-09-05T01:32:36.099Z,99.90
2018-09-05T01:35:04.627Z,99.90
2018-09-05T01:37:33.126Z,99.90
2018-09-05T01:40:01.650Z,99.90
2018-09-05T01:42:30.328Z,99.90
2018-09-05T01:44:58.862Z,99.90
2018-09-05T01:47:27.476Z,99.90
2018-09-05T01:49:55.948Z,99.90
2018-09-05T01:52:24.442Z,99.90
2018-09-05T01:54:52.981Z,99.90
2018-09-05T01:57:21.569Z,99.90
2018-09-05T01:59:50.090Z,99.90
2018-09-05T02:02:19.721Z,99.90
2018-09-05T02:04:48.361Z,99.90
2018-09-05T02:07:16.863Z,99.90
2018-09-05T02:09:45.425Z,99.90
2018-09-05T02:12:15.073Z,99.90
2018-09-05T02:14:44.009Z,99.90
2018-09-05T02:17:12.871Z,99.90
2018-09-05T02:19:41.403Z,99.90
2018-09-05T02:22:10.068Z,99.90
2018-09-05T02:24:38.721Z,99.90
2018-09-05T02:27:08.016Z,99.90
2018-09-05T02:29:36.485Z,99.90
2018-09-05T02:32:05.033Z,99.90
2018-09-05T02:34:33.681Z,99.90
2018-09-05T02:37:02.233Z,99.90
2018-09-05T02:39:30.873Z,99.90
2018-09-05T02:41:59.567Z,99.90
2018-09-05T02:44:28.117Z,99.90
2018-09-05T02:46:56.815Z,99.90
2018-09-05T02:49:25.351Z,99.90
2018-09-05T02:51:53.887Z,99.90
2018-09-05T02:54:22.432Z,99.90
2018-09-05T02:56:50.945Z,99.90
2018-09-05T02:59:19.417Z,99.90
2018-09-05T03:01:47.971Z,99.90
2018-09-05T03:04:16.561Z,99.90
2018-09-05T03:06:45.086Z,99.90
2018-09-05T03:09:13.661Z,99.90
2018-09-05T03:11:42.328Z,99.90
2018-09-05T03:14:10.913Z,99.90
2018-09-05T03:16:39.525Z,99.90
2018-09-05T03:19:08.620Z,99.90
2018-09-05T03:21:37.123Z,99.90
2018-09-05T03:24:05.672Z,99.90
2018-09-05T03:26:34.354Z,99.90
2018-09-05T03:29:02.858Z,99.90
2018-09-05T03:31:31.419Z,99.90
2018-09-05T03:33:59.898Z,99.90
2018-09-05T03:36:28.826Z,99.90
2018-09-05T03:38:57.322Z,99.90
2018-09-05T03:41:25.812Z,99.90
2018-09-05T03:43:54.533Z,99.90
2018-09-05T03:46:23.041Z,99.90
2018-09-05T03:48:51.547Z,99.90
2018-09-05T03:51:20.168Z,99.90
2018-09-05T03:53:49.209Z,99.90
2018-09-05T03:56:17.865Z,99.90
2018-09-05T03:58:46.694Z,99.90
2018-09-05T04:01:15.262Z,99.90
2018-09-05T04:03:50.177Z,99.90
2018-09-05T04:06:21.345Z,99.90
2018-09-05T04:08:51.273Z,99.90
2018-09-05T04:11:19.996Z,99.90
2018-09-05T04:13:49.231Z,99.90
2018-09-05T04:16:17.739Z,99.90
2018-09-05T04:18:46.314Z,99.90
2018-09-05T04:21:14.875Z,99.90
2018-09-05T04:23:46.262Z,99.90
2018-09-05T04:26:16.998Z,99.90
2018-09-05T04:28:45.518Z,99.90
2018-09-05T04:31:15.006Z,99.90
2018-09-05T04:33:43.831Z,99.90
2018-09-05T04:36:14.174Z,99.90
2018-09-05T04:38:43.682Z,99.90
2018-09-05T04:41:12.812Z,99.90
2018-09-05T04:43:41.321Z,99.90
2018-09-05T04:46:10.134Z,99.90
2018-09-05T04:48:38.857Z,99.90
2018-09-05T04:51:07.535Z,99.90
2018-09-05T04:53:36.068Z,99.90
2018-09-05T04:56:04.872Z,99.90
2018-09-05T04:58:33.491Z,99.90
2018-09-05T05:01:01.920Z,99.90
2018-09-05T05:03:35.910Z,99.90
2018-09-05T05:06:04.680Z,99.90
2018-09-05T05:08:33.126Z,99.90
2018-09-05T05:11:01.993Z,99.90
2018-09-05T05:13:30.894Z,99.90
2018-09-05T05:15:59.804Z,99.90
2018-09-05T05:18:28.307Z,99.90
2018-09-05T05:20:56.889Z,99.90
2018-09-05T05:23:25.389Z,99.90
2018-09-05T05:25:53.945Z,99.90
2018-09-05T05:28:22.921Z,99.90
2018-09-05T05:30:51.631Z,99.90
2018-09-05T05:33:20.147Z,99.90
2018-09-05T05:35:48.701Z,99.90
2018-09-05T05:38:17.362Z,99.90
2018-09-05T05:40:45.910Z,99.90
2018-09-05T05:43:14.514Z,99.90
2018-09-05T05:45:43.234Z,99.90
2018-09-05T05:48:11.767Z,99.90
2018-09-05T05:50:40.378Z,99.90
2018-09-05T05:53:08.896Z,99.90
2018-09-05T05:55:37.396Z,99.90
2018-09-05T05:58:06.414Z,99.90
2018-09-05T06:00:37.856Z,99.90
2018-09-05T06:03:06.638Z,99.90
2018-09-05T06:05:35.190Z,99.90
2018-09-05T06:08:03.888Z,99.90
2018-09-05T06:10:32.358Z,99.90
2018-09-05T06:13:00.845Z,99.90
2018-09-05T06:15:29.383Z,99.90
2018-09-05T06:17:58.309Z,99.90
2018-09-05T06:20:26.991Z,99.90
2018-09-05T06:22:55.484Z,99.90
2018-09-05T06:25:24.027Z,99.90
2018-09-05T06:27:52.612Z,99.90
2018-09-05T06:30:21.202Z,99.90
2018-09-05T06:32:49.783Z,99.90
2018-09-05T06:35:18.466Z,99.90
2018-09-05T06:37:46.947Z,99.90
2018-09-05T06:40:15.449Z,99.90
2018-09-05T06:42:44.009Z,99.90
2018-09-05T06:45:12.726Z,99.90
2018-09-05T06:47:41.292Z,99.90
2018-09-05T06:50:09.995Z,99.90
2018-09-05T06:52:38.479Z,99.90
2018-09-05T06:55:07.641Z,99.90
2018-09-05T06:57:36.223Z,99.90
2018-09-05T07:00:05.405Z,99.90
2018-09-05T07:02:34.114Z,99.90
2018-09-05T07:05:03.250Z,99.90
2018-09-05T07:07:32.084Z,99.90
2018-09-05T07:10:00.603Z,99.90
2018-09-05T07:12:29.577Z,99.90
2018-09-05T07:14:58.709Z,99.90
2018-09-05T07:17:27.265Z,99.90
2018-09-05T07:19:55.945Z,99.90
2018-09-05T07:22:24.461Z,99.90
2018-09-05T07:24:53.028Z,99.90
2018-09-05T07:27:21.565Z,99.90
2018-09-05T07:29:50.125Z,99.90
2018-09-05T07:32:18.934Z,99.90
2018-09-05T07:34:47.441Z,99.90
2018-09-05T07:37:15.981Z,99.90
2018-09-05T07:39:44.635Z,99.90
2018-09-05T07:42:13.231Z,99.90
2018-09-05T07:44:41.732Z,99.90
2018-09-05T07:47:10.321Z,99.90
2018-09-05T07:49:38.970Z,99.90
2018-09-05T07:52:07.474Z,99.90
2018-09-05T07:54:35.963Z,99.90
2018-09-05T07:57:04.456Z,99.90
2018-09-05T07:59:33.051Z,99.90
2018-09-05T08:02:01.596Z,99.90
2018-09-05T08:04:30.154Z,99.90
2018-09-05T08:06:58.851Z,99.90
2018-09-05T08:09:27.517Z,99.90
2018-09-05T08:11:55.980Z,99.90
2018-09-05T08:14:24.552Z,99.90
2018-09-05T08:16:53.230Z,99.90
2018-09-05T08:19:21.741Z,99.90
2018-09-05T08:21:50.611Z,99.90
2018-09-05T08:24:19.608Z,99.90
2018-09-05T08:26:48.164Z,99.90
2018-09-05T08:29:16.732Z,99.90
2018-09-05T08:31:45.224Z,99.90
2018-09-05T08:34:13.712Z,99.90
2018-09-05T08:36:42.449Z,99.90
2018-09-05T08:39:13.715Z,99.90
2018-09-05T08:41:42.430Z,99.90
2018-09-05T08:44:11.148Z,99.90
2018-09-05T08:46:39.544Z,99.90
2018-09-05T08:49:08.127Z,99.90
2018-09-05T08:51:36.838Z,99.90
2018-09-05T08:54:05.393Z,99.90
2018-09-05T08:56:33.892Z,99.90
2018-09-05T08:59:02.410Z,99.90
2018-09-05T09:01:30.929Z,99.90
2018-09-05T09:03:59.459Z,99.90
2018-09-05T09:06:28.005Z,99.90
2018-09-05T09:08:56.701Z,99.90
2018-09-05T09:11:25.175Z,99.90
2018-09-05T09:13:53.691Z,99.90
2018-09-05T09:16:22.318Z,99.90
2018-09-05T09:18:50.921Z,99.90
2018-09-05T09:21:19.454Z,99.90
2018-09-05T09:23:47.956Z,99.90
2018-09-05T09:26:16.852Z,99.90
2018-09-05T09:28:45.445Z,99.90
2018-09-05T09:31:13.979Z,99.90
2018-09-05T09:33:42.528Z,99.90
2018-09-05T09:36:11.060Z,99.90
2018-09-05T09:38:39.944Z,99.90
2018-09-05T09:41:08.480Z,99.90
2018-09-05T09:43:37.098Z,99.90
2018-09-05T09:46:05.752Z,99.90
2018-09-05T09:48:34.246Z,99.90
2018-09-05T09:51:02.732Z,99.90
2018-09-05T09:53:31.192Z,99.90
2018-09-05T09:55:59.700Z,99.90
2018-09-05T09:58:28.206Z,99.90
2018-09-05T10:03:07.335Z,99.90
2018-09-05T10:05:41.269Z,99.90
2018-09-05T10:08:10.342Z,99.90
2018-09-05T10:10:44.333Z,99.90
2018-09-05T10:13:13.241Z,99.90
2018-09-05T10:15:47.428Z,99.90
2018-09-05T10:18:21.471Z,99.90
2018-09-05T10:20:50.073Z,99.90
2018-09-05T10:23:18.550Z,99.90
2018-09-05T10:25:47.096Z,99.90
2018-09-05T10:28:15.647Z,99.90
2018-09-05T10:30:44.123Z,99.90
2018-09-05T10:33:12.841Z,99.90
2018-09-05T10:35:41.641Z,99.90
2018-09-05T10:38:10.371Z,99.90
2018-09-05T10:40:39.029Z,99.90
2018-09-05T10:43:07.545Z,99.90
2018-09-05T10:45:36.237Z,99.90
2018-09-05T10:48:04.821Z,99.90
2018-09-05T10:50:33.734Z,99.90
2018-09-05T10:53:02.310Z,99.90
2018-09-05T10:55:30.892Z,99.90
2018-09-05T10:57:59.499Z,99.90
2018-09-05T11:00:28.207Z,99.90
2018-09-05T11:02:56.702Z,99.90
2018-09-05T11:05:25.203Z,99.90
2018-09-05T11:07:54.151Z,99.90
2018-09-05T11:10:22.982Z,99.90
2018-09-05T11:12:51.460Z,99.90
2018-09-05T11:15:20.042Z,99.90
2018-09-05T11:17:48.762Z,99.90
2018-09-05T11:20:17.354Z,99.90
2018-09-05T11:22:48.164Z,99.90
2018-09-05T11:25:16.736Z,99.90
2018-09-05T11:27:45.290Z,99.90
2018-09-05T11:30:13.736Z,99.90
2018-09-05T11:32:43.154Z,99.90
2018-09-05T11:35:12.364Z,99.90
2018-09-05T11:37:41.129Z,99.90
2018-09-05T11:40:10.594Z,99.90
2018-09-05T11:42:39.144Z,99.90
2018-09-05T11:45:08.551Z,99.90
2018-09-05T11:47:37.222Z,99.90
2018-09-05T11:50:06.814Z,99.90
2018-09-05T11:52:36.021Z,99.90
2018-09-05T11:55:06.696Z,99.90
2018-09-05T11:57:35.538Z,99.90
2018-09-05T12:00:04.081Z,99.10
2018-09-05T12:02:32.611Z,98.70
2018-09-05T12:05:01.336Z,98.40
2018-09-05T12:07:30.094Z,98.40
2018-09-05T12:09:58.993Z,97.90
2018-09-05T12:12:27.482Z,98.20
2018-09-05T12:14:56.163Z,98.40
2018-09-05T12:17:24.768Z,98.70
2018-09-05T12:19:53.321Z,98.80
2018-09-05T12:22:21.827Z,98.90
2018-09-05T12:24:50.605Z,98.70
2018-09-05T12:27:19.163Z,98.60
2018-09-05T12:29:47.664Z,98.80
2018-09-05T12:32:16.304Z,99.00
2018-09-05T12:34:44.773Z,99.60
2018-09-05T12:37:13.504Z,99.70
2018-09-05T12:39:42.081Z,99.70
2018-09-05T12:42:10.829Z,99.90
2018-09-05T12:44:39.651Z,99.90
2018-09-05T12:47:08.227Z,99.90
2018-09-05T12:49:37.776Z,99.90
2018-09-05T12:52:06.379Z,99.90
2018-09-05T12:54:34.937Z,99.90
2018-09-05T12:57:03.494Z,99.20
2018-09-05T12:59:32.018Z,98.90
2018-09-05T13:02:00.798Z,98.70
2018-09-05T13:05:58.745Z,98.40
2018-09-05T13:08:27.648Z,98.50
2018-09-05T13:10:56.209Z,98.30
2018-09-05T13:13:24.682Z,98.70
2018-09-05T13:15:53.266Z,98.90
2018-09-05T13:18:21.776Z,99.00
2018-09-05T13:20:50.354Z,98.80
2018-09-05T13:23:19.152Z,98.60
2018-09-05T13:25:48.096Z,98.50
2018-09-05T13:28:16.726Z,98.00
2018-09-05T13:30:45.283Z,97.70
2018-09-05T13:33:14.412Z,97.60
2018-09-05T13:35:43.016Z,98.00
2018-09-05T13:38:12.117Z,98.10
2018-09-05T13:40:40.740Z,98.30
2018-09-05T13:43:09.327Z,98.70
2018-09-05T13:45:37.840Z,98.90
2018-09-05T13:48:06.637Z,99.40
2018-09-05T13:50:35.694Z,99.90
2018-09-05T13:53:04.301Z,99.90
2018-09-05T13:55:32.911Z,99.80
2018-09-05T13:58:01.485Z,99.90
2018-09-05T14:00:30.226Z,99.90
2018-09-05T14:02:58.809Z,99.90
2018-09-05T14:05:27.328Z,99.60
2018-09-05T14:07:55.869Z,99.10
2018-09-05T14:10:24.357Z,99.00
2018-09-05T14:12:52.894Z,99.20
2018-09-05T14:15:21.411Z,99.00
2018-09-05T14:17:49.915Z,98.70
2018-09-05T14:20:18.929Z,98.60
2018-09-05T14:22:47.524Z,98.80
2018-09-05T14:25:16.020Z,98.80
2018-09-05T14:27:44.531Z,98.60
2018-09-05T14:30:14.751Z,98.70
2018-09-05T14:32:45.118Z,98.90
2018-09-05T14:35:16.629Z,99.10
2018-09-05T14:37:45.192Z,99.90
2018-09-05T14:40:13.702Z,99.90
2018-09-05T14:42:42.342Z,99.90
2018-09-05T14:45:11.262Z,99.90
2018-09-05T14:47:39.885Z,99.90
2018-09-05T14:50:08.706Z,99.90
2018-09-05T14:52:37.398Z,99.90
2018-09-05T14:55:06.076Z,99.90
2018-09-05T14:57:34.707Z,99.90
2018-09-05T15:00:03.429Z,99.90
2018-09-05T15:02:32.561Z,99.90
2018-09-05T15:05:01.077Z,99.90
2018-09-05T15:07:29.652Z,99.90
2018-09-05T15:09:58.273Z,99.90
2018-09-05T15:12:26.863Z,99.90
2018-09-05T15:14:55.808Z,99.90
2018-09-05T15:17:24.472Z,99.90
2018-09-05T15:19:52.991Z,99.90
2018-09-05T15:22:21.919Z,99.90
2018-09-05T15:24:50.669Z,99.90
2018-09-05T15:27:19.259Z,99.90
2018-09-05T15:29:48.472Z,99.90
2018-09-05T15:32:17.006Z,99.90
2018-09-05T15:34:46.215Z,99.90
2018-09-05T15:37:14.987Z,99.90
2018-09-05T15:39:43.536Z,99.90
2018-09-05T15:42:12.067Z,99.90
2018-09-05T15:44:41.341Z,99.90
2018-09-05T15:47:10.359Z,99.90
2018-09-05T15:49:49.459Z,99.90
2018-09-05T15:52:18.017Z,99.90
2018-09-05T15:54:47.153Z,99.90
2018-09-05T15:57:15.866Z,99.90
2018-09-05T15:59:45.089Z,99.90
2018-09-05T16:02:13.697Z,99.90
2018-09-05T16:04:42.261Z,99.90
2018-09-05T16:07:11.185Z,99.90
2018-09-05T16:09:41.424Z,99.90
2018-09-05T16:12:22.617Z,99.90
2018-09-05T16:14:51.282Z,99.90
2018-09-05T16:17:20.063Z,99.90
2018-09-05T16:19:48.557Z,99.90
2018-09-05T16:22:17.296Z,99.90
2018-09-05T16:24:48.707Z,99.90
2018-09-05T16:27:17.249Z,99.90
2018-09-05T16:29:45.817Z,99.90
2018-09-05T16:32:14.402Z,99.90
2018-09-05T16:34:43.861Z,99.90
2018-09-05T16:37:13.283Z,99.90
2018-09-05T16:39:42.724Z,99.90
2018-09-05T16:42:13.403Z,99.90
2018-09-05T16:44:42.099Z,99.90
2018-09-05T16:47:10.672Z,99.90
2018-09-05T16:49:39.324Z,99.90
2018-09-05T16:52:08.740Z,99.90
2018-09-05T16:54:37.257Z,99.90
2018-09-05T16:57:06.142Z,99.90
2018-09-05T16:59:35.066Z,99.90
2018-09-05T17:02:03.580Z,99.90
2018-09-05T17:04:32.165Z,99.90
2018-09-05T17:07:02.036Z,99.90
2018-09-05T17:09:30.567Z,99.90
2018-09-05T17:11:59.318Z,99.90
2018-09-05T17:14:28.034Z,99.90
2018-09-05T17:16:56.575Z,99.90
2018-09-05T17:19:25.341Z,99.90
2018-09-05T17:21:53.964Z,99.90
2018-09-05T17:24:22.793Z,99.90
2018-09-05T17:26:52.048Z,99.90
2018-09-05T17:29:21.379Z,99.90
2018-09-05T17:31:51.053Z,99.90
2018-09-05T17:34:19.897Z,99.90
2018-09-05T17:36:51.118Z,99.90
2018-09-05T17:39:20.501Z,99.90
2018-09-05T17:41:51.264Z,99.90
2018-09-05T17:44:20.994Z,99.90
2018-09-05T17:46:52.324Z,99.90
2018-09-05T17:49:21.483Z,99.90
2018-09-05T17:51:52.278Z,99.90
2018-09-05T17:54:21.013Z,99.90
2018-09-05T17:56:50.069Z,99.90
2018-09-05T17:59:19.118Z,99.90
2018-09-05T18:01:48.856Z,99.90
2018-09-05T18:04:17.584Z,99.90
2018-09-05T18:06:46.141Z,99.90
2018-09-05T18:09:14.841Z,99.90
2018-09-05T18:11:43.359Z,99.90
2018-09-05T18:14:12.343Z,99.90
2018-09-05T18:16:40.898Z,99.90
2018-09-05T18:19:09.428Z,99.90
2018-09-05T18:21:45.226Z,99.90
2018-09-05T18:24:13.795Z,99.90
2018-09-05T18:26:43.706Z,99.90
2018-09-05T18:29:12.683Z,99.90
2018-09-05T18:31:41.236Z,99.90
2018-09-05T18:34:09.778Z,99.90
2018-09-05T18:36:38.741Z,99.90
2018-09-05T18:39:08.586Z,99.90
2018-09-05T18:41:37.305Z,99.90
2018-09-05T18:44:06.251Z,99.90
2018-09-05T18:46:34.808Z,99.90
2018-09-05T18:49:03.742Z,99.90
2018-09-05T18:51:32.416Z,99.90
2018-09-05T18:54:01.118Z,99.90
2018-09-05T18:56:29.702Z,99.90
2018-09-05T18:58:58.448Z,99.90
2018-09-05T19:01:27.009Z,99.90
2018-09-05T19:03:55.565Z,99.90
2018-09-05T19:06:24.436Z,99.90
2018-09-05T19:08:53.192Z,99.90
2018-09-05T19:11:21.673Z,99.90
2018-09-05T19:13:50.449Z,99.90
2018-09-05T19:16:18.968Z,99.90
2018-09-05T19:18:49.165Z,99.90
2018-09-05T19:21:17.685Z,99.90
2018-09-05T19:23:46.423Z,99.90
2018-09-05T19:26:14.986Z,99.90
2018-09-05T19:28:43.600Z,99.90
2018-09-05T19:31:12.091Z,99.90
2018-09-05T19:33:40.595Z,99.90
2018-09-05T19:36:09.178Z,99.90
2018-09-05T19:38:38.259Z,99.90
2018-09-05T19:41:07.286Z,99.90
2018-09-05T19:43:35.858Z,99.90
2018-09-05T19:46:04.395Z,99.90
2018-09-05T19:48:33.095Z,99.90
2018-09-05T19:51:02.259Z,99.90
2018-09-05T19:53:31.041Z,99.90
2018-09-05T19:55:59.556Z,99.90
2018-09-05T19:58:28.062Z,99.90
2018-09-05T20:00:56.680Z,99.90
2018-09-05T20:03:25.224Z,99.90
2018-09-05T20:05:53.899Z,99.90
2018-09-05T20:08:24.123Z,99.90
2018-09-05T20:10:52.712Z,99.90
2018-09-05T20:13:21.667Z,99.90
2018-09-05T20:15:51.723Z,99.90
2018-09-05T20:18:21.088Z,99.90
2018-09-05T20:20:49.585Z,99.90
2018-09-05T20:23:18.081Z,99.90
2018-09-05T20:25:46.827Z,99.90
2018-09-05T20:28:15.909Z,99.90
2018-09-05T20:30:44.422Z,99.90
2018-09-05T20:33:13.180Z,99.90
2018-09-05T20:35:41.772Z,99.90
2018-09-05T20:38:10.500Z,99.90
2018-09-05T20:40:39.010Z,99.90
2018-09-05T20:43:07.508Z,99.90
2018-09-05T20:45:36.028Z,99.90
2018-09-05T20:48:04.660Z,99.90
2018-09-05T20:50:33.202Z,99.90
2018-09-05T20:53:01.723Z,99.90
2018-09-05T20:55:30.375Z,99.90
2018-09-05T20:57:58.874Z,99.90
2018-09-05T21:00:27.377Z,99.90
2018-09-05T21:02:55.908Z,99.90
2018-09-05T21:05:24.659Z,99.90
2018-09-05T21:07:53.239Z,99.90
2018-09-05T21:10:28.037Z,99.90
2018-09-05T21:12:56.857Z,99.90
2018-09-05T21:15:25.577Z,99.90
2018-09-05T21:17:54.190Z,99.90
2018-09-05T21:20:23.313Z,99.90
2018-09-05T21:22:51.993Z,99.90
2018-09-05T21:25:20.585Z,99.90
2018-09-05T21:27:49.182Z,99.90
2018-09-05T21:30:17.716Z,99.90
2018-09-05T21:32:47.987Z,99.90
2018-09-05T21:35:16.487Z,99.90
2018-09-05T21:37:45.059Z,99.90
2018-09-05T21:40:13.829Z,99.90
2018-09-05T21:42:42.741Z,99.90
2018-09-05T21:45:11.235Z,99.90
2018-09-05T21:47:39.790Z,99.90
2018-09-05T21:50:08.563Z,99.90
2018-09-05T21:52:37.074Z,99.90
2018-09-05T21:55:05.819Z,99.90
2018-09-05T21:57:34.301Z,99.90
2018-09-05T22:00:02.905Z,99.90
2018-09-05T22:02:31.710Z,99.90
2018-09-05T22:05:00.357Z,99.90
2018-09-05T22:07:28.854Z,99.90
2018-09-05T22:09:57.322Z,99.90
2018-09-05T22:12:25.884Z,99.90
2018-09-05T22:14:54.630Z,99.90
2018-09-05T22:17:23.110Z,99.90
2018-09-05T22:19:51.620Z,99.90
2018-09-05T22:22:20.212Z,99.90
2018-09-05T22:24:48.796Z,99.90
2018-09-05T22:27:17.282Z,99.90
2018-09-05T22:29:45.856Z,99.90
2018-09-05T22:32:14.526Z,99.90
2018-09-05T22:34:43.025Z,99.90
2018-09-05T22:37:12.032Z,99.90
2018-09-05T22:39:40.616Z,99.90
2018-09-05T22:42:12.525Z,99.90
2018-09-05T22:44:52.988Z,99.90
2018-09-05T22:47:33.087Z,99.90
2018-09-05T22:52:19.678Z,99.90
2018-09-05T22:57:11.000Z,99.90
2018-09-05T22:59:50.784Z,99.90
2018-09-05T23:04:35.109Z,99.90
2018-09-05T23:09:20.701Z,99.90
2018-09-05T23:12:00.982Z,99.90
2018-09-05T23:14:41.156Z,99.90
2018-09-05T23:17:21.462Z,99.90
2018-09-05T23:22:01.134Z,99.90
2018-09-05T23:24:29.729Z,99.90
2018-09-05T23:26:58.356Z,99.90
2018-09-05T23:29:26.846Z,99.90
2018-09-05T23:31:55.338Z,99.90
2018-09-05T23:34:23.866Z,99.90
2018-09-05T23:36:52.634Z,99.90
2018-09-05T23:39:21.232Z,99.90
2018-09-05T23:41:49.762Z,99.90
2018-09-05T23:44:18.542Z,99.90
2018-09-05T23:46:47.092Z,99.90
2018-09-05T23:49:15.632Z,99.90
2018-09-05T23:51:44.206Z,99.90
2018-09-05T23:54:12.763Z,99.90
2018-09-05T23:56:41.379Z,99.90
2018-09-05T23:59:09.890Z,99.90
